createdAt,value
2022-12-15T00:00:45.382Z,96948.66
2022-12-15T00:03:33.399Z,96960.88
2022-12-15T00:06:20.620Z,96963.91
2022-12-15T00:09:12.681Z,96953.34
2022-12-15T00:12:00.718Z,96949.81
2022-12-15T00:14:47.240Z,96956.09
2022-12-15T00:17:33.561Z,96953.81
2022-12-15T00:20:21.815Z,96956.81
2022-12-15T00:23:08.424Z,96964.00
2022-12-15T00:25:55.218Z,96965.31
2022-12-15T00:28:42.883Z,96974.69
2022-12-15T00:31:29.472Z,96989.59
2022-12-15T00:34:15.844Z,96988.53
2022-12-15T00:37:03.528Z,96986.66
2022-12-15T00:39:32.692Z,96995.94
2022-12-15T00:42:01.835Z,96985.66
2022-12-15T00:44:31.010Z,97003.56
2022-12-15T00:46:59.131Z,97018.81
2022-12-15T00:49:47.211Z,97033.84
2022-12-15T00:52:36.718Z,97040.06
2022-12-15T00:55:24.250Z,97036.34
2022-12-15T00:58:12.497Z,97043.72
2022-12-15T01:00:58.889Z,97031.22
2022-12-15T01:03:45.369Z,97024.81
2022-12-15T01:06:34.093Z,97022.97
2022-12-15T01:09:24.800Z,97026.44
2022-12-15T01:12:11.362Z,97029.63
2022-12-15T01:14:57.916Z,97032.81
2022-12-15T01:17:44.213Z,97040.09
2022-12-15T01:20:18.655Z,97061.16
2022-12-15T01:22:49.411Z,97058.88
2022-12-15T01:25:22.050Z,97066.22
2022-12-15T01:27:51.504Z,97066.16
2022-12-15T01:30:23.183Z,97070.44
2022-12-15T01:32:52.664Z,97061.06
2022-12-15T01:35:22.463Z,97068.59
2022-12-15T01:37:51.573Z,97076.81
2022-12-15T01:40:40.365Z,97084.31
2022-12-15T01:43:15.112Z,97093.19
2022-12-15T01:46:06.381Z,97095.03
2022-12-15T01:48:45.544Z,97107.91
2022-12-15T01:51:29.752Z,97119.09
2022-12-15T01:54:05.652Z,97115.19
2022-12-15T01:56:44.032Z,97107.75
2022-12-15T01:59:19.656Z,97095.69
2022-12-15T02:01:49.763Z,97101.19
2022-12-15T02:04:20.797Z,97110.50
2022-12-15T02:06:49.994Z,97119.78
2022-12-15T02:09:20.290Z,97124.13
2022-12-15T02:12:05.331Z,97142.59
2022-12-15T02:15:09.452Z,97122.09
2022-12-15T02:17:48.068Z,97117.31
2022-12-15T02:20:50.648Z,97116.69
2022-12-15T02:23:56.461Z,97124.75
2022-12-15T02:27:21.198Z,97128.31
2022-12-15T02:30:27.556Z,97136.69
2022-12-15T02:33:08.084Z,97149.03
2022-12-15T02:35:48.677Z,97144.38
2022-12-15T02:38:28.993Z,97151.09
2022-12-15T02:41:02.932Z,97155.78
2022-12-15T02:43:37.271Z,97139.75
2022-12-15T02:46:23.126Z,97126.00
2022-12-15T02:49:05.207Z,97128.16
2022-12-15T02:51:55.039Z,97147.47
2022-12-15T02:54:49.134Z,97141.16
2022-12-15T02:57:26.165Z,97148.00
2022-12-15T02:59:59.408Z,97158.34
2022-12-15T03:02:34.443Z,97154.00
2022-12-15T03:05:06.026Z,97167.66
2022-12-15T03:07:35.455Z,97175.78
2022-12-15T03:10:08.186Z,97176.94
2022-12-15T03:12:37.690Z,97181.28
2022-12-15T03:15:08.535Z,97180.41
2022-12-15T03:17:39.208Z,97166.81
2022-12-15T03:20:10.217Z,97157.53
2022-12-15T03:22:40.007Z,97154.34
2022-12-15T03:25:09.991Z,97144.75
2022-12-15T03:27:39.049Z,97141.25
2022-12-15T03:30:10.089Z,97156.75
2022-12-15T03:32:40.776Z,97173.16
2022-12-15T03:35:10.722Z,97191.28
2022-12-15T03:37:40.044Z,97202.97
2022-12-15T03:40:11.602Z,97204.31
2022-12-15T03:42:49.670Z,97180.28
2022-12-15T03:45:20.183Z,97192.19
2022-12-15T03:47:52.365Z,97191.66
2022-12-15T03:50:24.252Z,97197.84
2022-12-15T03:52:54.437Z,97200.88
2022-12-15T03:55:24.453Z,97187.13
2022-12-15T03:57:53.843Z,97199.38
2022-12-15T04:00:24.529Z,97193.97
2022-12-15T04:02:55.979Z,97182.78
2022-12-15T04:05:28.384Z,97177.13
2022-12-15T04:07:59.326Z,97181.81
2022-12-15T04:10:34.235Z,97178.50
2022-12-15T04:13:06.680Z,97190.25
2022-12-15T04:15:37.582Z,97182.59
2022-12-15T04:18:11.625Z,97181.88
2022-12-15T04:20:41.393Z,97167.97
2022-12-15T04:23:10.636Z,97169.09
2022-12-15T04:25:57.263Z,97159.31
2022-12-15T04:28:43.883Z,97162.16
2022-12-15T04:31:33.365Z,97157.28
2022-12-15T04:34:25.176Z,97158.47
2022-12-15T04:37:12.676Z,97145.69
2022-12-15T04:40:01.422Z,97129.41
2022-12-15T04:42:50.506Z,97141.09
2022-12-15T04:45:40.196Z,97129.81
2022-12-15T04:48:26.911Z,97124.31
2022-12-15T04:51:15.141Z,97139.16
2022-12-15T04:54:02.253Z,97146.06
2022-12-15T04:56:49.879Z,97149.09
2022-12-15T04:59:37.132Z,97149.09
2022-12-15T05:02:23.886Z,97161.31
2022-12-15T05:05:10.493Z,97183.31
2022-12-15T05:07:58.133Z,97192.47
2022-12-15T05:10:44.419Z,97203.09
2022-12-15T05:13:31.358Z,97191.72
2022-12-15T05:16:18.259Z,97195.00
2022-12-15T05:19:10.754Z,97190.38
2022-12-15T05:21:57.921Z,97194.22
2022-12-15T05:24:47.132Z,97199.16
2022-12-15T05:27:33.694Z,97191.25
2022-12-15T05:30:19.873Z,97201.03
2022-12-15T05:32:49.984Z,97203.31
2022-12-15T05:35:19.199Z,97191.75
2022-12-15T05:37:48.420Z,97207.31
2022-12-15T05:40:18.915Z,97203.06
2022-12-15T05:42:50.260Z,97201.47
2022-12-15T05:45:20.286Z,97201.88
2022-12-15T05:47:53.687Z,97198.75
2022-12-15T05:50:24.222Z,97208.22
2022-12-15T05:52:54.495Z,97220.13
2022-12-15T05:55:25.410Z,97230.38
2022-12-15T05:57:58.118Z,97233.44
2022-12-15T06:00:31.969Z,97235.41
2022-12-15T06:03:03.061Z,97258.28
2022-12-15T06:05:32.624Z,97253.00
2022-12-15T06:08:02.362Z,97253.38
2022-12-15T06:10:32.891Z,97260.00
2022-12-15T06:13:02.170Z,97262.56
2022-12-15T06:15:31.715Z,97276.38
2022-12-15T06:18:01.017Z,97266.09
2022-12-15T06:20:32.593Z,97266.66
2022-12-15T06:23:01.935Z,97280.72
2022-12-15T06:25:32.578Z,97273.44
2022-12-15T06:28:02.163Z,97269.09
2022-12-15T06:30:32.840Z,97291.28
2022-12-15T06:33:02.936Z,97296.06
2022-12-15T06:35:32.147Z,97306.81
2022-12-15T06:38:01.959Z,97301.44
2022-12-15T06:40:37.698Z,97309.31
2022-12-15T06:43:07.822Z,97310.25
2022-12-15T06:45:37.064Z,97312.28
2022-12-15T06:48:08.400Z,97326.94
2022-12-15T06:50:37.416Z,97334.94
2022-12-15T06:53:06.519Z,97346.47
2022-12-15T06:55:37.028Z,97346.72
2022-12-15T06:58:06.132Z,97346.38
2022-12-15T07:00:37.943Z,97350.72
2022-12-15T07:03:12.150Z,97347.75
2022-12-15T07:05:41.437Z,97342.72
2022-12-15T07:08:12.075Z,97353.13
2022-12-15T07:10:44.163Z,97364.53
2022-12-15T07:13:14.129Z,97384.91
2022-12-15T07:15:44.596Z,97386.50
2022-12-15T07:18:13.793Z,97390.28
2022-12-15T07:20:43.063Z,97402.16
2022-12-15T07:23:12.348Z,97406.97
2022-12-15T07:25:42.774Z,97410.19
2022-12-15T07:28:12.158Z,97402.53
2022-12-15T07:30:41.281Z,97394.16
2022-12-15T07:33:10.437Z,97398.25
2022-12-15T07:35:39.557Z,97394.59
2022-12-15T07:38:09.725Z,97390.25
2022-12-15T07:40:39.159Z,97398.47
2022-12-15T07:43:09.644Z,97417.22
2022-12-15T07:45:39.855Z,97432.28
2022-12-15T07:48:08.788Z,97423.53
2022-12-15T07:50:39.696Z,97427.88
2022-12-15T07:53:08.687Z,97432.53
2022-12-15T07:56:05.511Z,97443.97
2022-12-15T07:58:29.416Z,97459.31
2022-12-15T08:01:01.920Z,97451.63
2022-12-15T08:03:31.976Z,97436.97
2022-12-15T08:06:05.511Z,97441.78
2022-12-15T08:08:36.517Z,97444.63
2022-12-15T08:11:06.853Z,97449.44
2022-12-15T08:16:29.168Z,97440.81
2022-12-15T08:18:59.338Z,97433.97
2022-12-15T08:21:28.439Z,97426.34
2022-12-15T08:23:57.563Z,97428.97
2022-12-15T08:26:30.305Z,97434.22
2022-12-15T08:29:49.099Z,97427.53
2022-12-15T08:31:54.917Z,97431.75
2022-12-15T08:34:24.172Z,97436.38
2022-12-15T08:36:53.181Z,97454.56
2022-12-15T08:39:22.151Z,97459.97
2022-12-15T08:41:51.549Z,97474.63
2022-12-15T08:44:23.220Z,97479.91
2022-12-15T08:46:52.508Z,97492.00
2022-12-15T08:49:22.502Z,97504.28
2022-12-15T08:51:52.516Z,97496.72
2022-12-15T08:54:22.523Z,97496.88
2022-12-15T08:56:51.700Z,97494.25
2022-12-15T08:59:22.133Z,97502.13
2022-12-15T09:01:51.441Z,97497.31
2022-12-15T09:04:20.734Z,97487.63
2022-12-15T09:06:50.430Z,97477.09
2022-12-15T09:09:20.652Z,97469.44
2022-12-15T09:11:51.285Z,97464.19
2022-12-15T09:14:28.878Z,97459.56
2022-12-15T09:16:58.759Z,97460.56
2022-12-15T09:19:28.012Z,97461.00
2022-12-15T09:21:56.999Z,97460.41
2022-12-15T09:24:34.419Z,97461.59
2022-12-15T09:27:05.222Z,97480.84
2022-12-15T09:29:35.840Z,97495.75
2022-12-15T09:32:10.501Z,97494.78
2022-12-15T09:34:41.864Z,97502.94
2022-12-15T09:37:10.918Z,97499.91
2022-12-15T09:39:40.255Z,97502.47
2022-12-15T09:42:26.116Z,97506.41
2022-12-15T09:45:08.477Z,97516.25
2022-12-15T09:47:46.085Z,97515.56
2022-12-15T09:50:17.951Z,97517.47
2022-12-15T09:52:51.493Z,97519.06
2022-12-15T09:55:24.530Z,97538.22
2022-12-15T09:57:57.171Z,97529.91
2022-12-15T10:00:42.621Z,97518.41
2022-12-15T10:03:42.830Z,97523.66
2022-12-15T10:06:19.224Z,97528.81
2022-12-15T10:08:57.669Z,97524.78
2022-12-15T10:11:50.333Z,97508.66
2022-12-15T10:14:31.676Z,97515.44
2022-12-15T10:17:18.628Z,97522.63
2022-12-15T10:20:01.284Z,97528.28
2022-12-15T10:22:34.220Z,97525.84
2022-12-15T10:25:15.603Z,97524.88
2022-12-15T10:28:10.986Z,97534.03
2022-12-15T10:30:52.150Z,97525.09
2022-12-15T10:33:26.926Z,97521.00
2022-12-15T10:35:59.089Z,97523.03
2022-12-15T10:38:38.702Z,97530.06
2022-12-15T10:41:10.460Z,97529.56
2022-12-15T10:43:42.031Z,97530.50
2022-12-15T10:46:15.533Z,97515.53
2022-12-15T10:48:49.216Z,97522.78
2022-12-15T10:51:27.485Z,97532.06
2022-12-15T10:54:14.640Z,97537.84
2022-12-15T10:56:53.717Z,97537.94
2022-12-15T10:59:31.061Z,97535.56
2022-12-15T11:02:34.674Z,97522.28
2022-12-15T11:05:19.000Z,97525.63
2022-12-15T11:07:51.883Z,97524.09
2022-12-15T11:10:24.921Z,97511.88
2022-12-15T11:13:16.384Z,97509.91
2022-12-15T11:15:50.537Z,97501.22
2022-12-15T11:18:43.860Z,97491.06
2022-12-15T11:21:25.910Z,97491.13
2022-12-15T11:24:09.934Z,97497.56
2022-12-15T11:26:53.425Z,97496.13
2022-12-15T11:29:34.594Z,97500.97
2022-12-15T11:32:07.251Z,97508.94
2022-12-15T11:34:44.539Z,97501.00
2022-12-15T11:40:40.021Z,97485.13
2022-12-15T11:43:52.202Z,97489.88
2022-12-15T11:46:24.021Z,97500.22
2022-12-15T11:49:29.250Z,97489.91
2022-12-15T11:52:06.028Z,97489.09
2022-12-15T11:54:45.180Z,97475.97
2022-12-15T11:57:42.412Z,97468.44
2022-12-15T12:00:15.774Z,97462.88
2022-12-15T12:03:21.918Z,97458.13
2022-12-15T12:06:06.628Z,97461.34
2022-12-15T12:09:10.781Z,97464.53
2022-12-15T12:11:48.841Z,97459.75
2022-12-15T12:14:37.460Z,97460.56
2022-12-15T12:17:15.189Z,97454.97
2022-12-15T12:19:50.863Z,97473.28
2022-12-15T12:22:27.529Z,97474.84
2022-12-15T12:25:02.295Z,97482.78
2022-12-15T12:27:40.884Z,97490.72
2022-12-15T12:30:17.300Z,97497.06
2022-12-15T12:32:54.946Z,97476.38
2022-12-15T12:38:26.320Z,97483.59
2022-12-15T12:41:06.278Z,97483.59
2022-12-15T12:43:43.183Z,97484.75
2022-12-15T12:46:22.676Z,97487.56
2022-12-15T12:48:59.040Z,97482.03
2022-12-15T12:51:32.019Z,97478.06
2022-12-15T12:54:30.973Z,97461.34
2022-12-15T12:57:00.942Z,97457.31
2022-12-15T12:59:41.858Z,97456.09
2022-12-15T13:03:12.303Z,97453.31
2022-12-15T13:05:44.288Z,97455.34
2022-12-15T13:08:51.922Z,97448.59
2022-12-15T13:12:00.867Z,97435.88
2022-12-15T13:14:48.221Z,97428.69
2022-12-15T13:17:32.300Z,97438.13
2022-12-15T13:20:29.141Z,97454.00
2022-12-15T13:23:44.642Z,97458.88
2022-12-15T13:26:19.385Z,97448.59
2022-12-15T13:28:54.406Z,97446.22
2022-12-15T13:31:49.234Z,97463.69
2022-12-15T13:34:33.982Z,97455.69
2022-12-15T13:37:04.167Z,97472.22
2022-12-15T13:39:59.646Z,97474.03
2022-12-15T13:42:37.256Z,97484.50
2022-12-15T13:46:06.746Z,97472.28
2022-12-15T13:48:41.717Z,97472.09
2022-12-15T13:51:33.621Z,97507.63
2022-12-15T13:54:16.516Z,97499.69
2022-12-15T13:57:06.920Z,97517.88
2022-12-15T13:59:45.823Z,97488.84
2022-12-15T14:02:57.750Z,97490.78
2022-12-15T14:05:32.053Z,97494.34
2022-12-15T14:08:13.250Z,97490.34
2022-12-15T14:10:51.775Z,97502.59
2022-12-15T14:13:27.688Z,97481.94
2022-12-15T14:16:04.247Z,97491.84
2022-12-15T14:18:35.961Z,97500.91
2022-12-15T14:21:09.260Z,97494.22
2022-12-15T14:24:10.998Z,97506.06
2022-12-15T14:26:34.838Z,97501.31
2022-12-15T14:29:07.638Z,97491.22
2022-12-15T14:31:38.719Z,97494.72
2022-12-15T15:03:12.826Z,97473.25
2022-12-15T15:24:03.554Z,97458.66
2022-12-15T15:26:33.083Z,97465.84
2022-12-15T15:29:02.986Z,97466.25
2022-12-15T15:31:41.319Z,97471.41
2022-12-15T15:34:11.609Z,97479.03
2022-12-15T15:36:41.036Z,97480.34
2022-12-15T15:39:17.060Z,97493.00
2022-12-15T15:41:46.275Z,97491.50
2022-12-15T15:44:16.827Z,97498.63
2022-12-15T15:46:49.872Z,97495.47
2022-12-15T15:49:23.563Z,97480.53
2022-12-15T15:51:53.340Z,97481.34
2022-12-15T15:54:45.751Z,97492.91
2022-12-15T15:57:16.394Z,97492.56
2022-12-15T15:59:47.130Z,97483.13
2022-12-15T16:02:16.900Z,97481.50
2022-12-15T16:04:46.123Z,97489.38
2022-12-15T16:07:24.172Z,97487.03
2022-12-15T16:09:55.819Z,97502.56
2022-12-15T16:12:29.372Z,97503.72
2022-12-15T16:14:58.524Z,97500.44
2022-12-15T16:17:27.611Z,97488.53
2022-12-15T16:19:57.738Z,97490.88
2022-12-15T16:22:26.848Z,97488.22
2022-12-15T16:24:58.481Z,97490.19
2022-12-15T16:27:28.491Z,97486.63
2022-12-15T16:29:58.119Z,97487.00
2022-12-15T16:32:27.265Z,97490.06
2022-12-15T16:34:56.224Z,97483.72
2022-12-15T16:37:28.369Z,97492.03
2022-12-15T16:39:58.713Z,97507.03
2022-12-15T16:42:27.755Z,97513.00
2022-12-15T16:44:57.326Z,97500.63
2022-12-15T16:47:27.240Z,97497.88
2022-12-15T16:49:56.301Z,97488.41
2022-12-15T16:52:25.309Z,97484.41
2022-12-15T16:54:58.570Z,97500.91
2022-12-15T16:57:27.699Z,97494.59
2022-12-15T16:59:57.223Z,97496.19
2022-12-15T17:02:29.837Z,97493.84
2022-12-15T17:04:59.149Z,97488.31
2022-12-15T17:07:29.567Z,97507.25
2022-12-15T17:10:00.784Z,97516.72
2022-12-15T17:12:30.213Z,97520.22
2022-12-15T17:14:59.580Z,97507.19
2022-12-15T17:17:30.653Z,97500.84
2022-12-15T17:22:53.556Z,97509.59
2022-12-15T17:26:00.857Z,97507.97
2022-12-15T17:28:22.355Z,97498.94
2022-12-15T17:30:52.532Z,97485.75
2022-12-15T17:33:23.666Z,97489.66
2022-12-15T17:35:56.044Z,97476.16
2022-12-15T17:38:25.291Z,97473.34
2022-12-15T17:40:58.056Z,97491.09
2022-12-15T17:43:35.403Z,97495.84
2022-12-15T17:46:05.378Z,97502.63
2022-12-15T17:48:36.203Z,97484.44
2022-12-15T17:51:15.460Z,97486.81
2022-12-15T17:53:46.261Z,97471.38
2022-12-15T17:56:18.916Z,97461.91
2022-12-15T17:58:48.172Z,97459.47
2022-12-15T18:01:17.438Z,97469.00
2022-12-15T18:03:46.809Z,97478.53
2022-12-15T18:06:17.353Z,97494.34
2022-12-15T18:08:49.110Z,97498.34
2022-12-15T18:11:20.128Z,97511.06
2022-12-15T18:13:49.113Z,97525.19
2022-12-15T18:16:18.961Z,97517.25
2022-12-15T18:18:48.108Z,97499.03
2022-12-15T18:21:19.270Z,97485.56
2022-12-15T18:23:49.442Z,97474.47
2022-12-15T18:26:21.090Z,97472.13
2022-12-15T18:28:50.176Z,97472.97
2022-12-15T18:31:25.791Z,97458.72
2022-12-15T18:34:00.918Z,97472.19
2022-12-15T18:36:33.440Z,97473.38
2022-12-15T18:39:12.559Z,97463.81
2022-12-15T18:41:42.914Z,97475.31
2022-12-15T18:44:20.552Z,97475.34
2022-12-15T18:46:49.815Z,97470.63
2022-12-15T18:49:19.587Z,97458.81
2022-12-15T18:51:50.897Z,97454.09
2022-12-15T18:54:23.902Z,97453.28
2022-12-15T18:56:54.848Z,97451.25
2022-12-15T18:59:24.016Z,97439.81
2022-12-15T19:01:53.345Z,97450.88
2022-12-15T19:04:22.611Z,97449.28
2022-12-15T19:06:51.954Z,97454.03
2022-12-15T19:09:23.250Z,97441.38
2022-12-15T19:12:12.603Z,97453.63
2022-12-15T19:14:41.757Z,97439.81
2022-12-15T19:17:30.574Z,97434.28
2022-12-15T19:20:17.055Z,97431.09
2022-12-15T19:22:48.326Z,97429.91
2022-12-15T19:25:25.980Z,97431.91
2022-12-15T19:27:59.335Z,97431.91
2022-12-15T19:30:33.222Z,97424.03
2022-12-15T19:33:05.137Z,97419.38
2022-12-15T19:35:34.535Z,97412.25
2022-12-15T19:38:04.603Z,97407.50
2022-12-15T19:40:36.803Z,97397.69
2022-12-15T19:43:07.419Z,97390.13
2022-12-15T19:45:36.540Z,97399.53
2022-12-15T19:48:06.500Z,97383.00
2022-12-15T19:50:38.583Z,97370.44
2022-12-15T19:53:17.543Z,97371.63
2022-12-15T19:55:46.614Z,97378.31
2022-12-15T19:58:31.987Z,97378.28
2022-12-15T20:01:03.910Z,97392.88
2022-12-15T20:03:34.534Z,97397.25
2022-12-15T20:06:05.667Z,97381.41
2022-12-15T20:08:39.239Z,97372.69
2022-12-15T20:11:16.258Z,97373.84
2022-12-15T20:13:47.258Z,97363.97
2022-12-15T20:16:18.955Z,97356.88
2022-12-15T20:18:49.281Z,97362.38
2022-12-15T20:21:35.471Z,97362.38
2022-12-15T20:24:09.875Z,97352.06
2022-12-15T20:26:40.413Z,97350.47
2022-12-15T20:29:24.256Z,97347.72
2022-12-15T20:31:54.413Z,97346.53
2022-12-15T20:34:23.674Z,97342.19
2022-12-15T20:36:53.656Z,97347.34
2022-12-15T20:39:26.738Z,97351.34
2022-12-15T20:41:56.672Z,97350.09
2022-12-15T20:44:27.783Z,97338.69
2022-12-15T20:46:57.061Z,97345.00
2022-12-15T20:49:26.381Z,97348.56
2022-12-15T20:51:56.548Z,97346.19
2022-12-15T20:54:25.611Z,97344.59
2022-12-15T20:56:54.763Z,97343.44
2022-12-15T20:59:23.791Z,97343.03
2022-12-15T21:01:54.954Z,97329.59
2022-12-15T21:04:32.112Z,97337.88
2022-12-15T21:07:01.231Z,97329.97
2022-12-15T21:09:30.318Z,97336.22
2022-12-15T21:12:04.350Z,97333.41
2022-12-15T21:14:36.553Z,97340.16
2022-12-15T21:17:07.224Z,97335.06
2022-12-15T21:19:36.336Z,97332.28
2022-12-15T21:22:06.488Z,97333.91
2022-12-15T21:24:35.885Z,97322.41
2022-12-15T21:27:05.291Z,97316.44
2022-12-15T21:29:35.152Z,97314.84
2022-12-15T21:32:04.276Z,97307.72
2022-12-15T21:34:35.144Z,97306.94
2022-12-15T21:37:05.695Z,97301.66
2022-12-15T21:39:37.453Z,97297.31
2022-12-15T21:42:13.097Z,97290.97
2022-12-15T21:44:42.733Z,97293.28
2022-12-15T21:47:25.976Z,97299.94
2022-12-15T21:49:55.420Z,97306.69
2022-12-15T21:52:27.732Z,97306.78
2022-12-15T21:54:56.697Z,97303.69
2022-12-15T21:57:25.778Z,97308.06
2022-12-15T21:59:55.184Z,97302.91
2022-12-15T22:02:27.839Z,97302.16
2022-12-15T22:05:04.824Z,97301.78
2022-12-15T22:07:33.837Z,97305.50
2022-12-15T22:10:03.490Z,97303.19
2022-12-15T22:12:42.296Z,97302.38
2022-12-15T22:15:18.433Z,97295.38
2022-12-15T22:17:48.223Z,97296.97
2022-12-15T22:20:23.285Z,97286.66
2022-12-15T22:22:52.535Z,97282.13
2022-12-15T22:25:24.601Z,97281.78
2022-12-15T22:27:57.683Z,97280.09
2022-12-15T22:30:28.249Z,97285.81
2022-12-15T22:32:57.450Z,97287.75
2022-12-15T22:35:28.591Z,97276.16
2022-12-15T22:37:57.669Z,97269.78
2022-12-15T22:40:26.665Z,97262.22
2022-12-15T22:42:58.375Z,97255.03
2022-12-15T22:45:27.565Z,97237.28
2022-12-15T22:47:56.532Z,97229.81
2022-12-15T22:50:28.414Z,97215.66
2022-12-15T22:52:57.396Z,97211.31
2022-12-15T22:55:26.478Z,97194.78
2022-12-15T22:58:00.687Z,97195.66
2022-12-15T23:00:29.765Z,97194.50
2022-12-15T23:02:59.660Z,97187.00
2022-12-15T23:05:32.795Z,97175.22
2022-12-15T23:08:01.804Z,97163.41
2022-12-15T23:10:48.319Z,97157.13
2022-12-15T23:13:17.407Z,97155.53
2022-12-15T23:16:03.988Z,97146.84
2022-12-15T23:18:40.335Z,97127.13
2022-12-15T23:21:10.868Z,97123.56
2022-12-15T23:23:40.605Z,97122.75
2022-12-15T23:26:09.951Z,97120.41
2022-12-15T23:28:39.420Z,97122.84
2022-12-15T23:31:14.137Z,97117.31
2022-12-15T23:33:43.277Z,97115.31
2022-12-15T23:36:14.546Z,97116.13
2022-12-15T23:38:43.668Z,97105.06
2022-12-15T23:41:17.947Z,97113.78
2022-12-15T23:43:46.989Z,97114.22
2022-12-15T23:46:16.152Z,97108.25
2022-12-15T23:48:53.512Z,97108.25
2022-12-15T23:51:25.615Z,97112.19
2022-12-15T23:53:54.802Z,97103.09
2022-12-15T23:56:50.555Z,97104.31
2022-12-15T23:59:20.757Z,97107.09
